Amsterdam — PBAD — position and weather

sailwx.info

Track history (hours):
 
Tides and Currents Weather Stations Pressure Air Temp Water Temp Dewpoint Dewpoint Depression Visibility Wind Speed Wind Dir Waves Ship Positions

Amsterdam

Operator: Holland America Line

Last reported at 2017-Aug-17 15:00 UTC. Time now 2017-Aug-18 03:07 UTC.
Position N 56°54' W 134°24'.

Type: Ship. MMSI: 244370000.

Wind from 130 at 20 knots

Barometer 1010.1 mb
Air temperature 12.4 ° C
Visibility: greater than 2.2 NM
Dewpoint 12.0 ° C
Water temperature 13.0 ° C

Date/timePositionNaut miles runAvg speedWind from/ knotsBaromVisibWave heightAir tempDewpointWater temp
2017-Aug-17 15:00N 56°54' W 134°24'6115.4 130 / 201010.1 2.2 12.412.013.0
2017-Aug-17 11:00N 55°54' W 134°48'5012.4 170 / 161013.9 5.4 14.112.315.1
2017-Aug-17 07:00N 56°18' W 133°30'131 6.6 220 / 111015.710.8 13.012.1 9.0
2017-Aug-16 11:00N 54°30' W 131°18'9515.9 210 / 71010.810.8 14.813.415.0
2017-Aug-16 05:00N 53°00' W 130°24'8214.8 180 / 181010.810.8 14.514.513.0
2017-Aug-15 23:28N 51°42' W 129°42'818.2
2017-Aug-15 23:00N 51°35' W 129°38'917.9
2017-Aug-15 22:30N 51°26' W 129°33'917.5
2017-Aug-15 22:00N 51°18' W 129°28'6406.7
2017-Aug-15 22:00N 51°12' W 129°24'2 4.6 190 / 161016.8 2.2 15.014.317.0
2017-Aug-15 21:30N 51°10' W 129°23'917.0
2017-Aug-15 21:00N 51°02' W 129°19'918.1
2017-Aug-15 20:30N 50°53' W 129°14'917.7
2017-Aug-15 20:01N 50°45' W 129°07'1017.0
2017-Aug-15 19:24N 50°37' W 128°57'717.3
2017-Aug-15 19:00N 50°32' W 128°51'918.0
2017-Aug-15 18:30N 50°24' W 128°43'916.6
2017-Aug-15 17:57N 50°17' W 128°34'816.4
2017-Aug-15 17:28N 50°11' W 128°27'1225.6
2017-Aug-15 17:00N 50°00' W 128°18'5 9.6 340 / 171017.010.8 14.012.516.0
2017-Aug-15 16:28N 49°58' W 128°11'4417.8
2017-Aug-15 14:00N 49°30' W 127°18'4 7.8 310 / 201015.210.8 15.014.314.0
2017-Aug-15 13:32N 49°28' W 127°14'116.8
2017-Aug-15 13:28N 49°27' W 127°13'1016.6
2017-Aug-15 12:54N 49°21' W 127°02'716.7
2017-Aug-15 12:29N 49°16' W 126°53'816.8
2017-Aug-15 12:00N 49°11' W 126°44'7464.4
2017-Aug-15 12:00N 49°06' W 126°36'1 2.7 310 / 231014.510.8 15.014.314.0
2017-Aug-15 11:30N 49°06' W 126°34'816.9
2017-Aug-15 11:00N 49°01' W 126°24'917.2
2017-Aug-15 10:31N 48°55' W 126°14'917.1
2017-Aug-15 10:01N 48°50' W 126°04'917.4
2017-Aug-15 09:30N 48°46' W 125°52'917.3
2017-Aug-15 09:00N 48°42' W 125°40'5320.8
2017-Aug-15 09:00N 48°42' W 125°48'1428.1 350 / 161014.510.8 16.014.316.0
2017-Aug-15 08:30N 48°39' W 125°28'918.1
2017-Aug-15 08:00N 48°37' W 125°15'918.4
2017-Aug-15 07:31N 48°35' W 125°01'918.4
2017-Aug-15 07:00N 48°32' W 124°48'918.3
2017-Aug-15 06:30N 48°29' W 124°35'918.0
2017-Aug-15 06:00N 48°25' W 124°23'3268.1
2017-Aug-15 06:00N 48°24' W 124°18'511.3 300 / 201014.5 5.4 12.011.211.0
2017-Aug-15 05:31N 48°22' W 124°11'917.2
2017-Aug-15 05:00N 48°18' W 123°59'9618.6
2017-Aug-15 05:00N 48°12' W 123°48'5 9.9 310 / 231014.410.8 11.811.211.0
2017-Aug-15 04:30N 48°17' W 123°46'816.0
2017-Aug-15 04:00N 48°16' W 123°34'815.2
2017-Aug-15 03:31N 48°11' W 123°25'510.4
2017-Aug-15 03:00N 48°09' W 123°18'816.1
2017-Aug-15 02:30N 48°13' W 123°07'916.5
2017-Aug-15 01:59N 48°12' W 122°54'715.1
2017-Aug-15 01:31N 48°10' W 122°44'815.5
2017-Aug-15 01:01N 48°03' W 122°38'816.3
2017-Aug-15 00:31N 47°56' W 122°31'817.0
2017-Aug-15 00:00N 47°48' W 122°27'917.0
2017-Aug-14 23:30N 47°40' W 122°27'3 6.9
2017-Aug-14 23:00N 47°38' W 122°23'0 0.0
2017-Aug-14 22:30N 47°38' W 122°23'0 0.0
2017-Aug-14 22:00N 47°38' W 122°23'0 0.0
2017-Aug-14 21:30N 47°38' W 122°23'0 0.0
2017-Aug-14 21:00N 47°38' W 122°23'0 0.0
2017-Aug-14 20:30N 47°38' W 122°23'0 0.0
2017-Aug-14 20:00N 47°38' W 122°23'0 0.0
2017-Aug-14 19:30N 47°38' W 122°23'0 0.0
2017-Aug-14 19:00N 47°38' W 122°23'0 0.0
2017-Aug-14 18:30N 47°38' W 122°23'0 0.0
2017-Aug-14 18:00N 47°38' W 122°23'0 0.0
2017-Aug-14 17:30N 47°38' W 122°23'0 0.0
2017-Aug-14 17:00N 47°38' W 122°23'0 0.0
2017-Aug-14 16:30N 47°38' W 122°23'0 0.0
2017-Aug-14 16:00N 47°38' W 122°23'0 0.0
2017-Aug-14 15:30N 47°38' W 122°23'0 0.0
2017-Aug-14 15:00N 47°38' W 122°23'0 0.0
2017-Aug-14 14:30N 47°38' W 122°23'0 0.0
2017-Aug-14 14:00N 47°38' W 122°23'0 0.0
2017-Aug-14 13:30N 47°38' W 122°23'0 0.0
2017-Aug-14 13:00N 47°38' W 122°23'0 0.5
2017-Aug-14 12:30N 47°37' W 122°23'3 6.7
2017-Aug-14 12:00N 47°39' W 122°28'611.2
2017-Aug-14 11:30N 47°44' W 122°27'510.3
2017-Aug-14 11:00N 47°50' W 122°28'510.6
2017-Aug-14 10:30N 47°55' W 122°30'510.3
2017-Aug-14 10:00N 47°58' W 122°36'2118.1
2017-Aug-14 10:00N 48°00' W 122°36'4 8.4 220 / 41017.710.8 16.012.818.0
2017-Aug-14 09:30N 48°03' W 122°39'511.0
2017-Aug-14 09:00N 48°08' W 122°43'713.2
2017-Aug-14 08:30N 48°11' W 122°52'815.4
2017-Aug-14 07:58N 48°12' W 123°04'816.2
2017-Aug-14 07:30N 48°11' W 123°15'612.7
2017-Aug-14 07:00N 48°10' W 123°25'815.0
2017-Aug-14 06:30N 48°17' W 123°28'714.3
2017-Aug-14 06:01N 48°24' W 123°24'1 2.3
2017-Aug-14 05:29N 48°25' W 123°23'0 0.0
2017-Aug-14 04:59N 48°25' W 123°23'0 0.0
2017-Aug-14 04:29N 48°25' W 123°23'0 0.0
2017-Aug-14 03:59N 48°25' W 123°23'0 0.0
2017-Aug-14 03:29N 48°25' W 123°23'0 0.0
2017-Aug-14 02:59N 48°25' W 123°23'0 0.0
2017-Aug-14 02:29N 48°25' W 123°23'0 0.0
2017-Aug-14 01:59N 48°25' W 123°23'0 0.0
2017-Aug-14 01:29N 48°25' W 123°23'0 0.0
2017-Aug-14 00:59N 48°25' W 123°23'0 0.0
2017-Aug-14 00:29N 48°25' W 123°23'0 0.0
2017-Aug-13 23:59N 48°25' W 123°23'0 0.0
2017-Aug-13 23:29N 48°25' W 123°23'0 0.0
2017-Aug-13 22:59N 48°25' W 123°23'0 0.0
2017-Aug-13 22:29N 48°25' W 123°23'0 0.0
2017-Aug-13 21:59N 48°25' W 123°23'0 0.0
2017-Aug-13 21:29N 48°25' W 123°23'0 0.0
2017-Aug-13 20:59N 48°25' W 123°23'0 0.0
2017-Aug-13 20:29N 48°25' W 123°23'0 0.0
2017-Aug-13 19:53N 48°25' W 123°23'0 0.8
2017-Aug-13 19:30N 48°25' W 123°24'3 5.1
2017-Aug-13 19:00N 48°22' W 123°25'611.8
2017-Aug-13 18:30N 48°17' W 123°26'611.9
2017-Aug-13 18:00N 48°13' W 123°34'713.3
2017-Aug-13 17:30N 48°13' W 123°44'713.9
2017-Aug-13 16:59N 48°13' W 123°54'713.8
2017-Aug-13 16:30N 48°16' W 124°04'714.3
2017-Aug-13 16:00N 48°19' W 124°13'2192.9
2017-Aug-13 16:00N 48°18' W 124°12'917.5 300 / 81015.410.8 15.013.215.0
2017-Aug-13 15:30N 48°22' W 124°23'814.6
2017-Aug-13 14:56N 48°26' W 124°35'614.2
2017-Aug-13 14:30N 48°28' W 124°43'1113.7
2017-Aug-13 13:41N 48°29' W 124°60'314.2
2017-Aug-13 13:27N 48°28' W 125°05'714.3
2017-Aug-13 13:00N 48°30' W 125°14'714.6
2017-Aug-13 12:30N 48°34' W 125°24'714.6
2017-Aug-13 12:00N 48°37' W 125°33'2146.6
2017-Aug-13 12:00N 48°36' W 125°36'714.1 280 / 161013.610.8 12.010.115.0
2017-Aug-13 11:31N 48°41' W 125°43'815.5
2017-Aug-13 11:01N 48°45' W 125°53'815.1
2017-Aug-13 10:31N 48°49' W 126°02'714.9
2017-Aug-13 10:00N 48°54' W 126°11'7454.2
2017-Aug-13 10:00N 48°48' W 126°06'1429.7 280 / 121013.510.8 14.013.117.0
2017-Aug-13 09:30N 48°59' W 126°20'815.0
2017-Aug-13 09:00N 49°04' W 126°29'815.6
2017-Aug-13 08:30N 49°09' W 126°39'713.8
2017-Aug-13 08:00N 49°12' W 126°48'4615.4 130 / 121012.610.8 14.113.918.0
2017-Aug-13 05:00N 49°42' W 127°42'4916.3 250 / 21010.7 5.4 14.113.918.0
2017-Aug-13 02:00N 50°12' W 128°42'6923.0 240 / 151007.4 5.4 14.513.614.0
2017-Aug-12 23:00N 51°00' W 130°00'10417.3 190 / 321002.2 5.4
2017-Aug-12 17:00N 52°12' W 132°00'13819.7 190 / 291001.4 5.4 14.814.818.5
2017-Aug-12 10:00N 54°12' W 133°54'5819.3 130 / 291002.8 5.4
2017-Aug-12 07:00N 55°06' W 134°30'2525.0 150 / 321007.1 13.813.315.0
2017-Aug-12 06:00N 55°30' W 134°42'130 6.9 150 / 271007.910.8 13.813.315.0
2017-Aug-11 11:00N 57°24' W 136°36'6120.5 200 / 71013.210.8 19.0
2017-Aug-11 08:00N 58°12' W 137°48'1717.4 250 / 21014.510.8 15.513.416.0
2017-Aug-11 07:00N 58°24' W 138°12'4622.8 160 / 21014.910.8 15.513.416.0
2017-Aug-11 05:00N 59°00' W 139°06'3417.2 260 / 81015.510.8 15.013.216.0
2017-Aug-11 03:00N 59°24' W 139°54'149 9.9 220 / 31016.310.8 14.512.714.0
2017-Aug-10 12:00N 58°48' W 144°36'6215.5 330 / 71013.510.8 14.012.216.0
2017-Aug-10 08:00N 58°30' W 146°30'5618.8 190 / 91016.510.8 13.411.918.0
2017-Aug-10 05:00N 58°12' W 148°12'4924.5 160 / 181015.110.8 13.812.317.0
2017-Aug-10 03:00N 58°00' W 149°42'7618.9 160 / 261013.010.8 14.013.112.0
2017-Aug-09 23:00N 57°42' W 152°00'15 1.4 120 / 211008.710.8
2017-Aug-09 12:00N 57°54' W 151°42'4210.6 110 / 271013.8 5.4 12.511.614.0
2017-Aug-09 08:00N 58°36' W 151°30'1212.0 090 / 381016.7 5.4 12.912.914.0
2017-Aug-09 07:00N 58°48' W 151°30'1515.2 090 / 391016.8 5.4 12.912.914.0
2017-Aug-09 06:00N 59°00' W 151°48'102 5.4 090 / 451016.7 5.4 13.213.016.0
2017-Aug-08 11:00N 60°42' W 151°30'4214.2 160 / 51021.810.8
2017-Aug-08 08:00N 61°06' W 150°18'   230 / 181021.2 5.4 16.313.117.0
Track history (hours):
 
Tides and Currents Weather Stations Pressure Air Temp Water Temp Dewpoint Dewpoint Depression Visibility Wind Speed Wind Dir Waves Ship Positions

Amsterdam

Operator: Holland America Line

Last reported at 2017-Aug-17 15:00 UTC. Time now 2017-Aug-18 03:07 UTC.
Position N 56°54' W 134°24'.

Type: Ship. MMSI: 244370000.

Wind from 130 at 20 knots

Barometer 1010.1 mb
Air temperature 12.4 ° C
Visibility: greater than 2.2 NM
Dewpoint 12.0 ° C
Water temperature 13.0 ° C

Date/timePositionNaut miles runAvg speedWind from/ knotsBaromVisibWave heightAir tempDewpointWater temp
2017-Aug-17 15:00N 56°54' W 134°24'6115.4 130 / 201010.1 2.2 12.412.013.0
2017-Aug-17 11:00N 55°54' W 134°48'5012.4 170 / 161013.9 5.4 14.112.315.1
2017-Aug-17 07:00N 56°18' W 133°30'131 6.6 220 / 111015.710.8 13.012.1 9.0
2017-Aug-16 11:00N 54°30' W 131°18'9515.9 210 / 71010.810.8 14.813.415.0
2017-Aug-16 05:00N 53°00' W 130°24'8214.8 180 / 181010.810.8 14.514.513.0
2017-Aug-15 23:28N 51°42' W 129°42'818.2
2017-Aug-15 23:00N 51°35' W 129°38'917.9
2017-Aug-15 22:30N 51°26' W 129°33'917.5
2017-Aug-15 22:00N 51°18' W 129°28'6406.7
2017-Aug-15 22:00N 51°12' W 129°24'2 4.6 190 / 161016.8 2.2 15.014.317.0
2017-Aug-15 21:30N 51°10' W 129°23'917.0
2017-Aug-15 21:00N 51°02' W 129°19'918.1
2017-Aug-15 20:30N 50°53' W 129°14'917.7
2017-Aug-15 20:01N 50°45' W 129°07'1017.0
2017-Aug-15 19:24N 50°37' W 128°57'717.3
2017-Aug-15 19:00N 50°32' W 128°51'918.0
2017-Aug-15 18:30N 50°24' W 128°43'916.6
2017-Aug-15 17:57N 50°17' W 128°34'816.4
2017-Aug-15 17:28N 50°11' W 128°27'1225.6
2017-Aug-15 17:00N 50°00' W 128°18'5 9.6 340 / 171017.010.8 14.012.516.0
2017-Aug-15 16:28N 49°58' W 128°11'4417.8
2017-Aug-15 14:00N 49°30' W 127°18'4 7.8 310 / 201015.210.8 15.014.314.0
2017-Aug-15 13:32N 49°28' W 127°14'116.8
2017-Aug-15 13:28N 49°27' W 127°13'1016.6
2017-Aug-15 12:54N 49°21' W 127°02'716.7
2017-Aug-15 12:29N 49°16' W 126°53'816.8
2017-Aug-15 12:00N 49°11' W 126°44'7464.4
2017-Aug-15 12:00N 49°06' W 126°36'1 2.7 310 / 231014.510.8 15.014.314.0
2017-Aug-15 11:30N 49°06' W 126°34'816.9
2017-Aug-15 11:00N 49°01' W 126°24'917.2
2017-Aug-15 10:31N 48°55' W 126°14'917.1
2017-Aug-15 10:01N 48°50' W 126°04'917.4
2017-Aug-15 09:30N 48°46' W 125°52'917.3
2017-Aug-15 09:00N 48°42' W 125°40'5320.8
2017-Aug-15 09:00N 48°42' W 125°48'1428.1 350 / 161014.510.8 16.014.316.0
2017-Aug-15 08:30N 48°39' W 125°28'918.1
2017-Aug-15 08:00N 48°37' W 125°15'918.4
2017-Aug-15 07:31N 48°35' W 125°01'918.4
2017-Aug-15 07:00N 48°32' W 124°48'918.3
2017-Aug-15 06:30N 48°29' W 124°35'918.0
2017-Aug-15 06:00N 48°25' W 124°23'3268.1
2017-Aug-15 06:00N 48°24' W 124°18'511.3 300 / 201014.5 5.4 12.011.211.0
2017-Aug-15 05:31N 48°22' W 124°11'917.2
2017-Aug-15 05:00N 48°18' W 123°59'9618.6
2017-Aug-15 05:00N 48°12' W 123°48'5 9.9 310 / 231014.410.8 11.811.211.0
2017-Aug-15 04:30N 48°17' W 123°46'816.0
2017-Aug-15 04:00N 48°16' W 123°34'815.2
2017-Aug-15 03:31N 48°11' W 123°25'510.4
2017-Aug-15 03:00N 48°09' W 123°18'816.1
2017-Aug-15 02:30N 48°13' W 123°07'916.5
2017-Aug-15 01:59N 48°12' W 122°54'715.1
2017-Aug-15 01:31N 48°10' W 122°44'815.5
2017-Aug-15 01:01N 48°03' W 122°38'816.3
2017-Aug-15 00:31N 47°56' W 122°31'817.0
2017-Aug-15 00:00N 47°48' W 122°27'917.0
2017-Aug-14 23:30N 47°40' W 122°27'3 6.9
2017-Aug-14 23:00N 47°38' W 122°23'0 0.0
2017-Aug-14 22:30N 47°38' W 122°23'0 0.0
2017-Aug-14 22:00N 47°38' W 122°23'0 0.0
2017-Aug-14 21:30N 47°38' W 122°23'0 0.0
2017-Aug-14 21:00N 47°38' W 122°23'0 0.0
2017-Aug-14 20:30N 47°38' W 122°23'0 0.0
2017-Aug-14 20:00N 47°38' W 122°23'0 0.0
2017-Aug-14 19:30N 47°38' W 122°23'0 0.0
2017-Aug-14 19:00N 47°38' W 122°23'0 0.0
2017-Aug-14 18:30N 47°38' W 122°23'0 0.0
2017-Aug-14 18:00N 47°38' W 122°23'0 0.0
2017-Aug-14 17:30N 47°38' W 122°23'0 0.0
2017-Aug-14 17:00N 47°38' W 122°23'0 0.0
2017-Aug-14 16:30N 47°38' W 122°23'0 0.0
2017-Aug-14 16:00N 47°38' W 122°23'0 0.0
2017-Aug-14 15:30N 47°38' W 122°23'0 0.0
2017-Aug-14 15:00N 47°38' W 122°23'0 0.0
2017-Aug-14 14:30N 47°38' W 122°23'0 0.0
2017-Aug-14 14:00N 47°38' W 122°23'0 0.0
2017-Aug-14 13:30N 47°38' W 122°23'0 0.0
2017-Aug-14 13:00N 47°38' W 122°23'0 0.5
2017-Aug-14 12:30N 47°37' W 122°23'3 6.7
2017-Aug-14 12:00N 47°39' W 122°28'611.2
2017-Aug-14 11:30N 47°44' W 122°27'510.3
2017-Aug-14 11:00N 47°50' W 122°28'510.6
2017-Aug-14 10:30N 47°55' W 122°30'510.3
2017-Aug-14 10:00N 47°58' W 122°36'2118.1
2017-Aug-14 10:00N 48°00' W 122°36'4 8.4 220 / 41017.710.8 16.012.818.0
2017-Aug-14 09:30N 48°03' W 122°39'511.0
2017-Aug-14 09:00N 48°08' W 122°43'713.2
2017-Aug-14 08:30N 48°11' W 122°52'815.4
2017-Aug-14 07:58N 48°12' W 123°04'816.2
2017-Aug-14 07:30N 48°11' W 123°15'612.7
2017-Aug-14 07:00N 48°10' W 123°25'815.0
2017-Aug-14 06:30N 48°17' W 123°28'714.3
2017-Aug-14 06:01N 48°24' W 123°24'1 2.3
2017-Aug-14 05:29N 48°25' W 123°23'0 0.0
2017-Aug-14 04:59N 48°25' W 123°23'0 0.0
2017-Aug-14 04:29N 48°25' W 123°23'0 0.0
2017-Aug-14 03:59N 48°25' W 123°23'0 0.0
2017-Aug-14 03:29N 48°25' W 123°23'0 0.0
2017-Aug-14 02:59N 48°25' W 123°23'0 0.0
2017-Aug-14 02:29N 48°25' W 123°23'0 0.0
2017-Aug-14 01:59N 48°25' W 123°23'0 0.0
2017-Aug-14 01:29N 48°25' W 123°23'0 0.0
2017-Aug-14 00:59N 48°25' W 123°23'0 0.0
2017-Aug-14 00:29N 48°25' W 123°23'0 0.0
2017-Aug-13 23:59N 48°25' W 123°23'0 0.0
2017-Aug-13 23:29N 48°25' W 123°23'0 0.0
2017-Aug-13 22:59N 48°25' W 123°23'0 0.0
2017-Aug-13 22:29N 48°25' W 123°23'0 0.0
2017-Aug-13 21:59N 48°25' W 123°23'0 0.0
2017-Aug-13 21:29N 48°25' W 123°23'0 0.0
2017-Aug-13 20:59N 48°25' W 123°23'0 0.0
2017-Aug-13 20:29N 48°25' W 123°23'0 0.0
2017-Aug-13 19:53N 48°25' W 123°23'0 0.8
2017-Aug-13 19:30N 48°25' W 123°24'3 5.1
2017-Aug-13 19:00N 48°22' W 123°25'611.8
2017-Aug-13 18:30N 48°17' W 123°26'611.9
2017-Aug-13 18:00N 48°13' W 123°34'713.3
2017-Aug-13 17:30N 48°13' W 123°44'713.9
2017-Aug-13 16:59N 48°13' W 123°54'713.8
2017-Aug-13 16:30N 48°16' W 124°04'714.3
2017-Aug-13 16:00N 48°19' W 124°13'2192.9
2017-Aug-13 16:00N 48°18' W 124°12'917.5 300 / 81015.410.8 15.013.215.0
2017-Aug-13 15:30N 48°22' W 124°23'814.6
2017-Aug-13 14:56N 48°26' W 124°35'614.2
2017-Aug-13 14:30N 48°28' W 124°43'1113.7
2017-Aug-13 13:41N 48°29' W 124°60'314.2
2017-Aug-13 13:27N 48°28' W 125°05'714.3
2017-Aug-13 13:00N 48°30' W 125°14'714.6
2017-Aug-13 12:30N 48°34' W 125°24'714.6
2017-Aug-13 12:00N 48°37' W 125°33'2146.6
2017-Aug-13 12:00N 48°36' W 125°36'714.1 280 / 161013.610.8 12.010.115.0
2017-Aug-13 11:31N 48°41' W 125°43'815.5
2017-Aug-13 11:01N 48°45' W 125°53'815.1
2017-Aug-13 10:31N 48°49' W 126°02'714.9
2017-Aug-13 10:00N 48°54' W 126°11'7454.2
2017-Aug-13 10:00N 48°48' W 126°06'1429.7 280 / 121013.510.8 14.013.117.0
2017-Aug-13 09:30N 48°59' W 126°20'815.0
2017-Aug-13 09:00N 49°04' W 126°29'815.6
2017-Aug-13 08:30N 49°09' W 126°39'713.8
2017-Aug-13 08:00N 49°12' W 126°48'4615.4 130 / 121012.610.8 14.113.918.0
2017-Aug-13 05:00N 49°42' W 127°42'4916.3 250 / 21010.7 5.4 14.113.918.0
2017-Aug-13 02:00N 50°12' W 128°42'6923.0 240 / 151007.4 5.4 14.513.614.0
2017-Aug-12 23:00N 51°00' W 130°00'10417.3 190 / 321002.2 5.4
2017-Aug-12 17:00N 52°12' W 132°00'13819.7 190 / 291001.4 5.4 14.814.818.5
2017-Aug-12 10:00N 54°12' W 133°54'5819.3 130 / 291002.8 5.4
2017-Aug-12 07:00N 55°06' W 134°30'2525.0 150 / 321007.1 13.813.315.0
2017-Aug-12 06:00N 55°30' W 134°42'130 6.9 150 / 271007.910.8 13.813.315.0
2017-Aug-11 11:00N 57°24' W 136°36'6120.5 200 / 71013.210.8 19.0
2017-Aug-11 08:00N 58°12' W 137°48'1717.4 250 / 21014.510.8 15.513.416.0
2017-Aug-11 07:00N 58°24' W 138°12'4622.8 160 / 21014.910.8 15.513.416.0
2017-Aug-11 05:00N 59°00' W 139°06'3417.2 260 / 81015.510.8 15.013.216.0
2017-Aug-11 03:00N 59°24' W 139°54'149 9.9 220 / 31016.310.8 14.512.714.0
2017-Aug-10 12:00N 58°48' W 144°36'6215.5 330 / 71013.510.8 14.012.216.0
2017-Aug-10 08:00N 58°30' W 146°30'5618.8 190 / 91016.510.8 13.411.918.0
2017-Aug-10 05:00N 58°12' W 148°12'4924.5 160 / 181015.110.8 13.812.317.0
2017-Aug-10 03:00N 58°00' W 149°42'7618.9 160 / 261013.010.8 14.013.112.0
2017-Aug-09 23:00N 57°42' W 152°00'15 1.4 120 / 211008.710.8
2017-Aug-09 12:00N 57°54' W 151°42'4210.6 110 / 271013.8 5.4 12.511.614.0
2017-Aug-09 08:00N 58°36' W 151°30'1212.0 090 / 381016.7 5.4 12.912.914.0
2017-Aug-09 07:00N 58°48' W 151°30'1515.2 090 / 391016.8 5.4 12.912.914.0
2017-Aug-09 06:00N 59°00' W 151°48'102 5.4 090 / 451016.7 5.4 13.213.016.0
2017-Aug-08 11:00N 60°42' W 151°30'4214.2 160 / 51021.810.8
2017-Aug-08 08:00N 61°06' W 150°18'   230 / 181021.2 5.4 16.313.117.0

Dump ship's entire track history